OY9800 EKSN-EKAH

Flight info

Callsign OY9800
Flight time N/A
Altitude 3000
Route DCT
Aircraft SIRA/L-G/CHARLIE

Departure

Time 2026-04-18 10:14
Airport Sindal Airport (EKSN)

Arrival

Time N/A
Airport Aarhus Airport (EKAH)
Time Latitude Longitude Altitude Speed Heading
2026-04-18 10:08 57.50453 10.22339 89 ft 0 kts 230°
2026-04-18 10:10 57.50441 10.22345 89 ft 5 kts 117°
2026-04-18 10:11 57.50441 10.22347 89 ft 0 kts 114°
2026-04-18 10:11 57.50440 10.22349 89 ft 2 kts 113°
2026-04-18 10:11 57.50414 10.22411 89 ft 7 kts 167°
2026-04-18 10:12 57.50354 10.22416 89 ft 9 kts 194°
2026-04-18 10:12 57.50335 10.22276 89 ft 12 kts 268°
2026-04-18 10:12 57.50332 10.22190 89 ft 12 kts 269°
2026-04-18 10:12 57.50320 10.22069 89 ft 8 kts 100°
2026-04-18 10:13 57.50320 10.22086 89 ft 0 kts 87°
2026-04-18 10:13 57.50324 10.22253 89 ft 48 kts 88°
2026-04-18 10:13 57.50365 10.23112 341 ft 67 kts 88°
2026-04-18 10:13 57.50427 10.24045 611 ft 82 kts 86°
2026-04-18 10:14 57.50518 10.25097 904 ft 75 kts 83°
2026-04-18 10:14 57.50647 10.26100 1024 ft 78 kts 89°
2026-04-18 10:14 57.50457 10.26997 1146 ft 74 kts 142°
2026-04-18 10:14 57.49977 10.27203 1335 ft 68 kts 169°
2026-04-18 10:15 57.49689 10.27261 1422 ft 69 kts 169°
2026-04-18 10:15 57.49401 10.27335 1480 ft 72 kts 168°
2026-04-18 10:15 57.48896 10.27500 1584 ft 75 kts 166°
2026-04-18 10:15 57.48390 10.27678 1716 ft 73 kts 167°
2026-04-18 10:16 57.47887 10.27828 1844 ft 72 kts 168°
2026-04-18 10:16 57.47391 10.27994 1974 ft 72 kts 167°
2026-04-18 10:16 57.46890 10.28122 2085 ft 73 kts 171°
2026-04-18 10:16 57.46383 10.28206 2217 ft 72 kts 172°
2026-04-18 10:17 57.45867 10.28302 2322 ft 75 kts 171°
2026-04-18 10:17 57.45338 10.28433 2447 ft 77 kts 168°
2026-04-18 10:17 57.44838 10.28614 2645 ft 73 kts 165°
2026-04-18 10:17 57.44309 10.28850 2715 ft 81 kts 164°
2026-04-18 10:18 57.43755 10.29159 2791 ft 84 kts 160°
2026-04-18 10:18 57.43222 10.29520 2913 ft 78 kts 158°
2026-04-18 10:18 57.42728 10.29862 3023 ft 75 kts 161°
2026-04-18 10:18 57.42230 10.30076 3151 ft 72 kts 167°
2026-04-18 10:19 57.41717 10.30234 3258 ft 77 kts 169°
2026-04-18 10:19 57.41177 10.30386 3357 ft 83 kts 169°
2026-04-18 10:19 57.40604 10.30568 3421 ft 86 kts 167°
2026-04-18 10:19 57.39956 10.30776 3276 ft 98 kts 169°